sensor_id;sensor_type;location;lat;lon;timestamp;temperature;humidity
5697;DHT22;2873;50.966;7.210;2023-11-21T00:02:25;10.40;99.90
5697;DHT22;2873;50.966;7.210;2023-11-21T00:04:50;10.30;99.90
5697;DHT22;2873;50.966;7.210;2023-11-21T00:07:16;10.20;99.90
5697;DHT22;2873;50.966;7.210;2023-11-21T00:09:42;10.30;99.90
5697;DHT22;2873;50.966;7.210;2023-11-21T00:12:08;10.20;99.90
5697;DHT22;2873;50.966;7.210;2023-11-21T00:14:38;10.20;99.90
5697;DHT22;2873;50.966;7.210;2023-11-21T00:17:04;10.20;99.90
5697;DHT22;2873;50.966;7.210;2023-11-21T00:19:30;10.30;99.90
5697;DHT22;2873;50.966;7.210;2023-11-21T00:21:56;10.30;99.90
5697;DHT22;2873;50.966;7.210;2023-11-21T00:24:23;10.30;99.90
5697;DHT22;2873;50.966;7.210;2023-11-21T00:26:50;10.30;99.90
5697;DHT22;2873;50.966;7.210;2023-11-21T00:29:15;10.30;99.90
5697;DHT22;2873;50.966;7.210;2023-11-21T00:31:43;10.20;99.90
5697;DHT22;2873;50.966;7.210;2023-11-21T00:34:08;10.30;99.90
5697;DHT22;2873;50.966;7.210;2023-11-21T00:36:34;10.30;99.90
5697;DHT22;2873;50.966;7.210;2023-11-21T00:38:59;10.30;99.90
5697;DHT22;2873;50.966;7.210;2023-11-21T00:41:25;10.30;99.90
5697;DHT22;2873;50.966;7.210;2023-11-21T00:43:53;10.20;99.90
5697;DHT22;2873;50.966;7.210;2023-11-21T00:46:19;10.20;99.90
5697;DHT22;2873;50.966;7.210;2023-11-21T00:48:44;10.10;99.90
5697;DHT22;2873;50.966;7.210;2023-11-21T00:51:09;10.10;99.90
5697;DHT22;2873;50.966;7.210;2023-11-21T00:53:35;10.10;99.90
5697;DHT22;2873;50.966;7.210;2023-11-21T00:56:00;10.10;99.90
5697;DHT22;2873;50.966;7.210;2023-11-21T00:58:26;10.20;99.90
5697;DHT22;2873;50.966;7.210;2023-11-21T01:00:51;10.10;99.90
5697;DHT22;2873;50.966;7.210;2023-11-21T01:03:18;10.10;99.90
5697;DHT22;2873;50.966;7.210;2023-11-21T01:05:43;10.10;99.90
5697;DHT22;2873;50.966;7.210;2023-11-21T01:08:09;10.10;99.90
5697;DHT22;2873;50.966;7.210;2023-11-21T01:10:35;10.00;99.90
5697;DHT22;2873;50.966;7.210;2023-11-21T01:13:03;10.10;99.90
5697;DHT22;2873;50.966;7.210;2023-11-21T01:15:32;10.20;99.90
5697;DHT22;2873;50.966;7.210;2023-11-21T01:17:58;10.00;99.90
5697;DHT22;2873;50.966;7.210;2023-11-21T01:20:23;10.00;99.90
5697;DHT22;2873;50.966;7.210;2023-11-21T01:22:49;10.10;99.90
5697;DHT22;2873;50.966;7.210;2023-11-21T01:25:15;10.10;99.90
5697;DHT22;2873;50.966;7.210;2023-11-21T01:27:42;10.10;99.90
5697;DHT22;2873;50.966;7.210;2023-11-21T01:30:07;10.10;99.90
5697;DHT22;2873;50.966;7.210;2023-11-21T01:32:35;10.10;99.90
5697;DHT22;2873;50.966;7.210;2023-11-21T01:35:01;10.20;99.90
5697;DHT22;2873;50.966;7.210;2023-11-21T01:37:26;10.10;99.90
5697;DHT22;2873;50.966;7.210;2023-11-21T01:39:53;10.10;99.90
5697;DHT22;2873;50.966;7.210;2023-11-21T01:42:20;10.10;99.90
5697;DHT22;2873;50.966;7.210;2023-11-21T01:44:46;10.00;99.90
5697;DHT22;2873;50.966;7.210;2023-11-21T01:47:11;10.10;99.90
5697;DHT22;2873;50.966;7.210;2023-11-21T01:49:38;10.10;99.90
5697;DHT22;2873;50.966;7.210;2023-11-21T01:52:03;10.20;99.90
5697;DHT22;2873;50.966;7.210;2023-11-21T01:54:29;10.20;99.90
5697;DHT22;2873;50.966;7.210;2023-11-21T01:56:57;10.10;99.90
5697;DHT22;2873;50.966;7.210;2023-11-21T01:59:28;10.10;99.90
5697;DHT22;2873;50.966;7.210;2023-11-21T02:01:56;10.10;99.90
5697;DHT22;2873;50.966;7.210;2023-11-21T02:04:22;10.20;99.90
5697;DHT22;2873;50.966;7.210;2023-11-21T02:06:47;10.10;99.90
5697;DHT22;2873;50.966;7.210;2023-11-21T02:09:13;10.00;99.90
5697;DHT22;2873;50.966;7.210;2023-11-21T02:11:40;10.10;99.90
5697;DHT22;2873;50.966;7.210;2023-11-21T02:14:06;10.10;99.90
5697;DHT22;2873;50.966;7.210;2023-11-21T02:16:34;10.10;99.90
5697;DHT22;2873;50.966;7.210;2023-11-21T02:19:01;10.10;99.90
5697;DHT22;2873;50.966;7.210;2023-11-21T02:21:26;10.10;99.90
5697;DHT22;2873;50.966;7.210;2023-11-21T02:23:52;10.10;99.90
5697;DHT22;2873;50.966;7.210;2023-11-21T02:26:18;10.00;99.90
5697;DHT22;2873;50.966;7.210;2023-11-21T02:28:43;10.00;99.90
5697;DHT22;2873;50.966;7.210;2023-11-21T02:31:09;10.00;99.90
5697;DHT22;2873;50.966;7.210;2023-11-21T02:33:34;10.00;99.90
5697;DHT22;2873;50.966;7.210;2023-11-21T02:36:00;10.00;99.90
5697;DHT22;2873;50.966;7.210;2023-11-21T02:38:26;9.90;99.90
5697;DHT22;2873;50.966;7.210;2023-11-21T02:40:51;9.90;99.90
5697;DHT22;2873;50.966;7.210;2023-11-21T02:43:17;9.90;99.90
5697;DHT22;2873;50.966;7.210;2023-11-21T02:45:42;10.00;99.90
5697;DHT22;2873;50.966;7.210;2023-11-21T02:48:08;9.90;99.90
5697;DHT22;2873;50.966;7.210;2023-11-21T02:50:34;10.00;99.90
5697;DHT22;2873;50.966;7.210;2023-11-21T02:53:00;9.90;99.90
5697;DHT22;2873;50.966;7.210;2023-11-21T02:55:27;9.90;99.90
5697;DHT22;2873;50.966;7.210;2023-11-21T02:57:52;10.00;99.90
5697;DHT22;2873;50.966;7.210;2023-11-21T03:00:18;10.00;99.90
5697;DHT22;2873;50.966;7.210;2023-11-21T03:02:43;10.00;99.90
5697;DHT22;2873;50.966;7.210;2023-11-21T03:05:09;10.00;99.90
5697;DHT22;2873;50.966;7.210;2023-11-21T03:07:35;10.00;99.90
5697;DHT22;2873;50.966;7.210;2023-11-21T03:10:00;10.10;99.90
5697;DHT22;2873;50.966;7.210;2023-11-21T03:12:26;10.00;99.90
5697;DHT22;2873;50.966;7.210;2023-11-21T03:14:51;10.00;99.90
5697;DHT22;2873;50.966;7.210;2023-11-21T03:17:17;10.00;99.90
5697;DHT22;2873;50.966;7.210;2023-11-21T03:19:42;10.00;99.90
5697;DHT22;2873;50.966;7.210;2023-11-21T03:22:07;9.90;99.90
5697;DHT22;2873;50.966;7.210;2023-11-21T03:24:34;9.90;99.90
5697;DHT22;2873;50.966;7.210;2023-11-21T03:26:59;10.00;99.90
5697;DHT22;2873;50.966;7.210;2023-11-21T03:29:25;10.00;99.90
5697;DHT22;2873;50.966;7.210;2023-11-21T03:31:50;10.00;99.90
5697;DHT22;2873;50.966;7.210;2023-11-21T03:34:19;9.90;99.90
5697;DHT22;2873;50.966;7.210;2023-11-21T03:36:45;10.00;99.90
5697;DHT22;2873;50.966;7.210;2023-11-21T03:39:11;9.90;99.90
5697;DHT22;2873;50.966;7.210;2023-11-21T03:41:37;9.80;99.90
5697;DHT22;2873;50.966;7.210;2023-11-21T03:44:02;9.90;99.90
5697;DHT22;2873;50.966;7.210;2023-11-21T03:46:28;9.90;99.90
5697;DHT22;2873;50.966;7.210;2023-11-21T03:48:53;9.90;99.90
5697;DHT22;2873;50.966;7.210;2023-11-21T03:51:20;10.00;99.90
5697;DHT22;2873;50.966;7.210;2023-11-21T03:53:46;9.90;99.90
5697;DHT22;2873;50.966;7.210;2023-11-21T03:56:13;10.00;99.90
5697;DHT22;2873;50.966;7.210;2023-11-21T03:58:39;10.00;99.90
5697;DHT22;2873;50.966;7.210;2023-11-21T04:01:04;10.10;99.90
5697;DHT22;2873;50.966;7.210;2023-11-21T04:03:30;10.10;99.90
5697;DHT22;2873;50.966;7.210;2023-11-21T04:05:55;10.20;99.90
5697;DHT22;2873;50.966;7.210;2023-11-21T04:08:20;10.20;99.90
5697;DHT22;2873;50.966;7.210;2023-11-21T04:10:46;10.10;99.90
5697;DHT22;2873;50.966;7.210;2023-11-21T04:13:11;10.20;99.90
5697;DHT22;2873;50.966;7.210;2023-11-21T04:15:37;10.20;99.90
5697;DHT22;2873;50.966;7.210;2023-11-21T04:18:02;10.20;99.90
5697;DHT22;2873;50.966;7.210;2023-11-21T04:20:28;10.00;99.90
5697;DHT22;2873;50.966;7.210;2023-11-21T04:22:54;10.10;99.90
5697;DHT22;2873;50.966;7.210;2023-11-21T04:25:19;10.10;99.90
5697;DHT22;2873;50.966;7.210;2023-11-21T04:27:45;10.10;99.90
5697;DHT22;2873;50.966;7.210;2023-11-21T04:30:13;10.10;99.90
5697;DHT22;2873;50.966;7.210;2023-11-21T04:32:39;10.10;99.90
5697;DHT22;2873;50.966;7.210;2023-11-21T04:35:05;10.20;99.90
5697;DHT22;2873;50.966;7.210;2023-11-21T04:37:30;10.10;99.90
5697;DHT22;2873;50.966;7.210;2023-11-21T04:39:56;10.20;99.90
5697;DHT22;2873;50.966;7.210;2023-11-21T04:42:21;10.20;99.90
5697;DHT22;2873;50.966;7.210;2023-11-21T04:44:47;10.20;99.90
5697;DHT22;2873;50.966;7.210;2023-11-21T04:47:12;10.30;99.90
5697;DHT22;2873;50.966;7.210;2023-11-21T04:49:39;10.20;99.90
5697;DHT22;2873;50.966;7.210;2023-11-21T04:52:05;10.20;99.90
5697;DHT22;2873;50.966;7.210;2023-11-21T04:54:30;10.20;99.90
5697;DHT22;2873;50.966;7.210;2023-11-21T04:56:56;10.20;99.90
5697;DHT22;2873;50.966;7.210;2023-11-21T04:59:21;10.10;99.90
5697;DHT22;2873;50.966;7.210;2023-11-21T05:01:50;10.00;99.90
5697;DHT22;2873;50.966;7.210;2023-11-21T05:04:15;10.10;99.90
5697;DHT22;2873;50.966;7.210;2023-11-21T05:06:41;10.00;99.90
5697;DHT22;2873;50.966;7.210;2023-11-21T05:09:06;10.00;99.90
5697;DHT22;2873;50.966;7.210;2023-11-21T05:11:37;10.00;99.90
5697;DHT22;2873;50.966;7.210;2023-11-21T05:14:02;10.00;99.90
5697;DHT22;2873;50.966;7.210;2023-11-21T05:16:29;10.00;99.90
5697;DHT22;2873;50.966;7.210;2023-11-21T05:18:54;9.90;99.90
5697;DHT22;2873;50.966;7.210;2023-11-21T05:21:29;10.00;99.90
5697;DHT22;2873;50.966;7.210;2023-11-21T05:23:57;10.00;99.90
5697;DHT22;2873;50.966;7.210;2023-11-21T05:26:22;10.00;99.90
5697;DHT22;2873;50.966;7.210;2023-11-21T05:28:48;10.00;99.90
5697;DHT22;2873;50.966;7.210;2023-11-21T05:31:13;9.90;99.90
5697;DHT22;2873;50.966;7.210;2023-11-21T05:33:39;9.60;99.90
5697;DHT22;2873;50.966;7.210;2023-11-21T05:36:04;9.70;99.90
5697;DHT22;2873;50.966;7.210;2023-11-21T05:38:30;9.70;99.90
5697;DHT22;2873;50.966;7.210;2023-11-21T05:40:55;9.70;99.90
5697;DHT22;2873;50.966;7.210;2023-11-21T05:43:21;9.70;99.90
5697;DHT22;2873;50.966;7.210;2023-11-21T05:45:46;9.70;99.90
5697;DHT22;2873;50.966;7.210;2023-11-21T05:48:11;9.50;99.90
5697;DHT22;2873;50.966;7.210;2023-11-21T05:50:37;9.60;99.90
5697;DHT22;2873;50.966;7.210;2023-11-21T05:53:03;9.50;99.90
5697;DHT22;2873;50.966;7.210;2023-11-21T05:55:29;9.60;99.90
5697;DHT22;2873;50.966;7.210;2023-11-21T05:57:54;9.60;99.90
5697;DHT22;2873;50.966;7.210;2023-11-21T06:00:20;9.70;99.90
5697;DHT22;2873;50.966;7.210;2023-11-21T06:02:47;9.80;99.90
5697;DHT22;2873;50.966;7.210;2023-11-21T06:05:15;9.80;99.90
5697;DHT22;2873;50.966;7.210;2023-11-21T06:07:42;9.80;99.90
5697;DHT22;2873;50.966;7.210;2023-11-21T06:10:07;9.90;99.90
5697;DHT22;2873;50.966;7.210;2023-11-21T06:12:36;9.90;99.90
5697;DHT22;2873;50.966;7.210;2023-11-21T06:15:02;9.90;99.90
5697;DHT22;2873;50.966;7.210;2023-11-21T06:17:30;9.90;99.90
5697;DHT22;2873;50.966;7.210;2023-11-21T06:19:56;9.90;99.90
5697;DHT22;2873;50.966;7.210;2023-11-21T06:22:21;9.80;99.90
5697;DHT22;2873;50.966;7.210;2023-11-21T06:24:47;9.80;99.90
5697;DHT22;2873;50.966;7.210;2023-11-21T06:27:12;9.80;99.90
5697;DHT22;2873;50.966;7.210;2023-11-21T06:29:37;9.80;99.90
5697;DHT22;2873;50.966;7.210;2023-11-21T06:32:03;9.80;99.90
5697;DHT22;2873;50.966;7.210;2023-11-21T06:34:30;9.90;99.90
5697;DHT22;2873;50.966;7.210;2023-11-21T06:36:56;9.90;99.90
5697;DHT22;2873;50.966;7.210;2023-11-21T06:39:21;9.70;99.90
5697;DHT22;2873;50.966;7.210;2023-11-21T06:41:49;9.70;99.90
5697;DHT22;2873;50.966;7.210;2023-11-21T06:44:14;9.70;99.90
5697;DHT22;2873;50.966;7.210;2023-11-21T06:46:40;9.40;99.90
5697;DHT22;2873;50.966;7.210;2023-11-21T06:49:07;9.50;99.90
5697;DHT22;2873;50.966;7.210;2023-11-21T06:51:33;9.60;99.90
5697;DHT22;2873;50.966;7.210;2023-11-21T06:53:58;9.70;99.90
5697;DHT22;2873;50.966;7.210;2023-11-21T06:56:24;9.70;99.90
5697;DHT22;2873;50.966;7.210;2023-11-21T06:58:49;9.80;99.90
5697;DHT22;2873;50.966;7.210;2023-11-21T07:01:19;9.70;99.90
5697;DHT22;2873;50.966;7.210;2023-11-21T07:03:44;9.70;99.90
5697;DHT22;2873;50.966;7.210;2023-11-21T07:06:10;9.70;99.90
5697;DHT22;2873;50.966;7.210;2023-11-21T07:08:36;9.80;99.90
5697;DHT22;2873;50.966;7.210;2023-11-21T07:11:02;9.90;99.90
5697;DHT22;2873;50.966;7.210;2023-11-21T07:13:28;9.90;99.90
5697;DHT22;2873;50.966;7.210;2023-11-21T07:15:54;9.90;99.90
5697;DHT22;2873;50.966;7.210;2023-11-21T07:18:19;9.90;99.90
5697;DHT22;2873;50.966;7.210;2023-11-21T07:20:45;10.00;99.90
5697;DHT22;2873;50.966;7.210;2023-11-21T07:23:10;9.90;99.90
5697;DHT22;2873;50.966;7.210;2023-11-21T07:25:35;10.00;99.90
5697;DHT22;2873;50.966;7.210;2023-11-21T07:28:01;10.00;99.90
5697;DHT22;2873;50.966;7.210;2023-11-21T07:30:26;9.80;99.90
5697;DHT22;2873;50.966;7.210;2023-11-21T07:32:52;9.70;99.90
5697;DHT22;2873;50.966;7.210;2023-11-21T07:35:18;9.80;99.90
5697;DHT22;2873;50.966;7.210;2023-11-21T07:37:43;9.80;99.90
5697;DHT22;2873;50.966;7.210;2023-11-21T07:40:09;9.80;99.90
5697;DHT22;2873;50.966;7.210;2023-11-21T07:42:37;9.90;99.90
5697;DHT22;2873;50.966;7.210;2023-11-21T07:45:03;9.90;99.90
5697;DHT22;2873;50.966;7.210;2023-11-21T07:47:28;9.90;99.90
5697;DHT22;2873;50.966;7.210;2023-11-21T07:49:54;9.90;99.90
5697;DHT22;2873;50.966;7.210;2023-11-21T07:52:21;9.90;99.90
5697;DHT22;2873;50.966;7.210;2023-11-21T07:54:47;9.80;99.90
5697;DHT22;2873;50.966;7.210;2023-11-21T07:57:12;9.90;99.90
5697;DHT22;2873;50.966;7.210;2023-11-21T07:59:39;9.90;99.90
5697;DHT22;2873;50.966;7.210;2023-11-21T08:02:06;9.80;99.90
5697;DHT22;2873;50.966;7.210;2023-11-21T08:04:31;9.90;99.90
5697;DHT22;2873;50.966;7.210;2023-11-21T08:06:57;10.00;99.90
5697;DHT22;2873;50.966;7.210;2023-11-21T08:09:22;10.00;99.90
5697;DHT22;2873;50.966;7.210;2023-11-21T08:11:49;10.00;99.90
5697;DHT22;2873;50.966;7.210;2023-11-21T08:14:14;10.10;99.90
5697;DHT22;2873;50.966;7.210;2023-11-21T08:16:40;10.00;99.90
5697;DHT22;2873;50.966;7.210;2023-11-21T08:19:06;10.10;99.90
5697;DHT22;2873;50.966;7.210;2023-11-21T08:21:31;10.20;99.90
5697;DHT22;2873;50.966;7.210;2023-11-21T08:23:57;10.20;99.90
5697;DHT22;2873;50.966;7.210;2023-11-21T08:26:22;10.30;99.90
5697;DHT22;2873;50.966;7.210;2023-11-21T08:28:48;10.30;99.90
5697;DHT22;2873;50.966;7.210;2023-11-21T08:31:14;10.40;99.90
5697;DHT22;2873;50.966;7.210;2023-11-21T08:33:39;10.40;99.90
5697;DHT22;2873;50.966;7.210;2023-11-21T08:36:08;10.50;99.90
5697;DHT22;2873;50.966;7.210;2023-11-21T08:38:34;10.50;99.90
5697;DHT22;2873;50.966;7.210;2023-11-21T08:41:06;10.60;99.90
5697;DHT22;2873;50.966;7.210;2023-11-21T08:43:35;10.60;99.90
5697;DHT22;2873;50.966;7.210;2023-11-21T08:46:00;10.70;99.90
5697;DHT22;2873;50.966;7.210;2023-11-21T08:48:26;10.70;99.90
5697;DHT22;2873;50.966;7.210;2023-11-21T08:50:53;10.70;99.90
5697;DHT22;2873;50.966;7.210;2023-11-21T08:53:19;10.80;99.90
5697;DHT22;2873;50.966;7.210;2023-11-21T08:55:45;10.80;99.90
5697;DHT22;2873;50.966;7.210;2023-11-21T08:58:11;10.60;99.90
5697;DHT22;2873;50.966;7.210;2023-11-21T09:00:37;10.70;99.90
5697;DHT22;2873;50.966;7.210;2023-11-21T09:03:05;10.80;99.90
5697;DHT22;2873;50.966;7.210;2023-11-21T09:05:34;10.70;99.90
5697;DHT22;2873;50.966;7.210;2023-11-21T09:07:59;10.70;99.90
5697;DHT22;2873;50.966;7.210;2023-11-21T09:10:25;10.70;99.90
5697;DHT22;2873;50.966;7.210;2023-11-21T09:12:50;10.60;99.90
5697;DHT22;2873;50.966;7.210;2023-11-21T09:15:17;10.50;99.90
5697;DHT22;2873;50.966;7.210;2023-11-21T09:17:42;10.60;99.90
5697;DHT22;2873;50.966;7.210;2023-11-21T09:20:10;10.80;99.90
5697;DHT22;2873;50.966;7.210;2023-11-21T09:22:35;10.80;99.90
5697;DHT22;2873;50.966;7.210;2023-11-21T09:25:02;10.70;99.90
5697;DHT22;2873;50.966;7.210;2023-11-21T09:27:31;10.60;99.90
5697;DHT22;2873;50.966;7.210;2023-11-21T09:29:56;10.80;99.90
5697;DHT22;2873;50.966;7.210;2023-11-21T09:32:23;10.70;99.90
5697;DHT22;2873;50.966;7.210;2023-11-21T09:34:49;10.80;99.90
5697;DHT22;2873;50.966;7.210;2023-11-21T09:37:15;10.60;99.90
5697;DHT22;2873;50.966;7.210;2023-11-21T09:39:41;10.40;99.90
5697;DHT22;2873;50.966;7.210;2023-11-21T09:42:12;10.60;99.90
5697;DHT22;2873;50.966;7.210;2023-11-21T09:45:38;10.60;99.90
5697;DHT22;2873;50.966;7.210;2023-11-21T09:47:33;10.80;99.90
5697;DHT22;2873;50.966;7.210;2023-11-21T09:50:01;10.90;99.90
5697;DHT22;2873;50.966;7.210;2023-11-21T09:52:27;10.80;99.90
5697;DHT22;2873;50.966;7.210;2023-11-21T09:54:53;10.90;99.90
5697;DHT22;2873;50.966;7.210;2023-11-21T09:57:21;10.90;99.90
5697;DHT22;2873;50.966;7.210;2023-11-21T09:59:51;10.90;99.90
5697;DHT22;2873;50.966;7.210;2023-11-21T10:02:27;10.70;99.90
5697;DHT22;2873;50.966;7.210;2023-11-21T10:04:58;10.70;99.90
5697;DHT22;2873;50.966;7.210;2023-11-21T10:07:25;10.80;99.90
5697;DHT22;2873;50.966;7.210;2023-11-21T10:09:51;10.80;99.90
5697;DHT22;2873;50.966;7.210;2023-11-21T10:12:18;10.90;99.90
5697;DHT22;2873;50.966;7.210;2023-11-21T10:14:46;11.10;99.90
5697;DHT22;2873;50.966;7.210;2023-11-21T10:17:13;11.00;99.90
5697;DHT22;2873;50.966;7.210;2023-11-21T10:19:41;11.00;99.90
5697;DHT22;2873;50.966;7.210;2023-11-21T10:22:07;10.80;99.90
5697;DHT22;2873;50.966;7.210;2023-11-21T10:24:34;11.10;99.90
5697;DHT22;2873;50.966;7.210;2023-11-21T10:26:59;11.20;99.90
5697;DHT22;2873;50.966;7.210;2023-11-21T10:29:30;11.00;99.90
5697;DHT22;2873;50.966;7.210;2023-11-21T10:31:56;11.10;99.90
5697;DHT22;2873;50.966;7.210;2023-11-21T10:34:24;11.30;99.90
5697;DHT22;2873;50.966;7.210;2023-11-21T10:36:49;11.20;99.90
5697;DHT22;2873;50.966;7.210;2023-11-21T10:39:21;11.10;99.90
5697;DHT22;2873;50.966;7.210;2023-11-21T10:41:49;11.10;99.90
5697;DHT22;2873;50.966;7.210;2023-11-21T10:44:15;11.20;99.90
5697;DHT22;2873;50.966;7.210;2023-11-21T10:46:49;11.20;99.90
5697;DHT22;2873;50.966;7.210;2023-11-21T10:49:21;11.20;99.90
5697;DHT22;2873;50.966;7.210;2023-11-21T10:51:46;11.30;99.90
5697;DHT22;2873;50.966;7.210;2023-11-21T10:54:18;11.40;99.90
5697;DHT22;2873;50.966;7.210;2023-11-21T10:56:43;11.40;99.90
5697;DHT22;2873;50.966;7.210;2023-11-21T10:59:12;11.20;99.90
5697;DHT22;2873;50.966;7.210;2023-11-21T11:01:45;11.30;99.90
5697;DHT22;2873;50.966;7.210;2023-11-21T11:04:11;11.40;99.90
5697;DHT22;2873;50.966;7.210;2023-11-21T11:06:44;11.20;99.90
5697;DHT22;2873;50.966;7.210;2023-11-21T11:09:11;11.30;99.90
5697;DHT22;2873;50.966;7.210;2023-11-21T11:11:39;11.20;99.90
5697;DHT22;2873;50.966;7.210;2023-11-21T11:14:07;11.30;99.90
5697;DHT22;2873;50.966;7.210;2023-11-21T11:16:34;11.40;99.90
5697;DHT22;2873;50.966;7.210;2023-11-21T11:18:59;11.30;99.90
5697;DHT22;2873;50.966;7.210;2023-11-21T11:21:27;11.30;99.90
5697;DHT22;2873;50.966;7.210;2023-11-21T11:24:11;11.50;99.90
5697;DHT22;2873;50.966;7.210;2023-11-21T11:29:16;11.40;99.90
5697;DHT22;2873;50.966;7.210;2023-11-21T11:32:03;11.50;99.90
5697;DHT22;2873;50.966;7.210;2023-11-21T11:34:35;11.40;99.90
5697;DHT22;2873;50.966;7.210;2023-11-21T11:37:03;11.60;99.90
5697;DHT22;2873;50.966;7.210;2023-11-21T11:42:01;11.80;99.90
5697;DHT22;2873;50.966;7.210;2023-11-21T11:47:15;11.80;99.90
5697;DHT22;2873;50.966;7.210;2023-11-21T11:52:38;11.80;99.90
5697;DHT22;2873;50.966;7.210;2023-11-21T11:55:05;11.80;99.90
5697;DHT22;2873;50.966;7.210;2023-11-21T11:57:31;11.80;99.90
5697;DHT22;2873;50.966;7.210;2023-11-21T12:00:06;12.00;99.90
5697;DHT22;2873;50.966;7.210;2023-11-21T12:02:35;12.00;99.90
5697;DHT22;2873;50.966;7.210;2023-11-21T12:05:01;11.80;99.90
5697;DHT22;2873;50.966;7.210;2023-11-21T12:07:38;11.80;99.90
5697;DHT22;2873;50.966;7.210;2023-11-21T12:10:04;11.90;99.90
5697;DHT22;2873;50.966;7.210;2023-11-21T12:12:30;11.90;99.90
5697;DHT22;2873;50.966;7.210;2023-11-21T12:14:58;12.00;99.90
5697;DHT22;2873;50.966;7.210;2023-11-21T12:17:24;12.10;99.90
5697;DHT22;2873;50.966;7.210;2023-11-21T12:19:49;12.10;99.90
5697;DHT22;2873;50.966;7.210;2023-11-21T12:22:17;12.20;99.90
5697;DHT22;2873;50.966;7.210;2023-11-21T12:24:44;12.20;99.90
5697;DHT22;2873;50.966;7.210;2023-11-21T12:27:09;12.30;99.90
5697;DHT22;2873;50.966;7.210;2023-11-21T12:29:34;12.10;99.90
5697;DHT22;2873;50.966;7.210;2023-11-21T12:32:03;12.30;99.90
5697;DHT22;2873;50.966;7.210;2023-11-21T12:34:28;12.30;99.90
5697;DHT22;2873;50.966;7.210;2023-11-21T12:36:54;12.30;99.90
5697;DHT22;2873;50.966;7.210;2023-11-21T12:39:20;12.20;99.90
5697;DHT22;2873;50.966;7.210;2023-11-21T12:41:48;12.40;99.90
5697;DHT22;2873;50.966;7.210;2023-11-21T12:44:13;12.40;99.90
5697;DHT22;2873;50.966;7.210;2023-11-21T12:46:41;12.20;99.90
5697;DHT22;2873;50.966;7.210;2023-11-21T12:49:07;12.30;99.90
5697;DHT22;2873;50.966;7.210;2023-11-21T12:51:32;12.20;99.90
5697;DHT22;2873;50.966;7.210;2023-11-21T12:53:59;12.30;99.90
5697;DHT22;2873;50.966;7.210;2023-11-21T12:56:24;12.20;99.90
5697;DHT22;2873;50.966;7.210;2023-11-21T12:58:50;12.30;99.90
5697;DHT22;2873;50.966;7.210;2023-11-21T13:01:17;12.30;99.90
5697;DHT22;2873;50.966;7.210;2023-11-21T13:03:47;12.30;99.90
5697;DHT22;2873;50.966;7.210;2023-11-21T13:06:16;12.40;99.90
5697;DHT22;2873;50.966;7.210;2023-11-21T13:08:43;12.50;99.90
5697;DHT22;2873;50.966;7.210;2023-11-21T13:11:10;12.40;99.90
5697;DHT22;2873;50.966;7.210;2023-11-21T13:13:35;12.30;99.90
5697;DHT22;2873;50.966;7.210;2023-11-21T13:16:02;12.40;99.90
5697;DHT22;2873;50.966;7.210;2023-11-21T13:18:30;12.40;99.90
5697;DHT22;2873;50.966;7.210;2023-11-21T13:20:59;12.40;99.90
5697;DHT22;2873;50.966;7.210;2023-11-21T13:23:25;12.40;99.90
5697;DHT22;2873;50.966;7.210;2023-11-21T13:25:54;12.10;99.90
5697;DHT22;2873;50.966;7.210;2023-11-21T13:28:20;12.10;99.90
5697;DHT22;2873;50.966;7.210;2023-11-21T13:30:47;12.20;99.90
5697;DHT22;2873;50.966;7.210;2023-11-21T13:33:13;12.30;99.90
5697;DHT22;2873;50.966;7.210;2023-11-21T13:35:43;12.30;99.90
5697;DHT22;2873;50.966;7.210;2023-11-21T13:38:16;11.90;99.90
5697;DHT22;2873;50.966;7.210;2023-11-21T13:40:46;12.10;99.90
5697;DHT22;2873;50.966;7.210;2023-11-21T13:43:15;12.10;99.90
5697;DHT22;2873;50.966;7.210;2023-11-21T13:45:40;12.20;99.90
5697;DHT22;2873;50.966;7.210;2023-11-21T13:48:07;12.20;99.90
5697;DHT22;2873;50.966;7.210;2023-11-21T13:50:41;12.30;99.90
5697;DHT22;2873;50.966;7.210;2023-11-21T13:53:20;12.20;99.90
5697;DHT22;2873;50.966;7.210;2023-11-21T13:55:49;12.10;99.90
5697;DHT22;2873;50.966;7.210;2023-11-21T13:58:15;12.10;99.90
5697;DHT22;2873;50.966;7.210;2023-11-21T14:00:47;12.10;99.90
5697;DHT22;2873;50.966;7.210;2023-11-21T14:03:21;11.90;99.90
5697;DHT22;2873;50.966;7.210;2023-11-21T14:05:48;11.90;99.90
5697;DHT22;2873;50.966;7.210;2023-11-21T14:08:19;12.00;99.90
5697;DHT22;2873;50.966;7.210;2023-11-21T14:10:49;11.90;99.90
5697;DHT22;2873;50.966;7.210;2023-11-21T14:13:23;11.70;99.90
5697;DHT22;2873;50.966;7.210;2023-11-21T14:15:50;11.90;99.90
5697;DHT22;2873;50.966;7.210;2023-11-21T14:18:23;12.00;99.90
5697;DHT22;2873;50.966;7.210;2023-11-21T14:20:56;11.70;99.90
5697;DHT22;2873;50.966;7.210;2023-11-21T14:23:21;11.80;99.90
5697;DHT22;2873;50.966;7.210;2023-11-21T14:25:48;11.70;99.90
5697;DHT22;2873;50.966;7.210;2023-11-21T14:28:15;11.90;99.90
5697;DHT22;2873;50.966;7.210;2023-11-21T14:30:40;11.80;99.90
5697;DHT22;2873;50.966;7.210;2023-11-21T14:33:07;11.70;99.90
5697;DHT22;2873;50.966;7.210;2023-11-21T14:35:34;11.80;99.90
5697;DHT22;2873;50.966;7.210;2023-11-21T14:37:59;11.70;99.90
5697;DHT22;2873;50.966;7.210;2023-11-21T14:40:26;11.90;99.90
5697;DHT22;2873;50.966;7.210;2023-11-21T14:42:54;11.80;99.90
5697;DHT22;2873;50.966;7.210;2023-11-21T14:45:21;11.70;99.90
5697;DHT22;2873;50.966;7.210;2023-11-21T14:47:48;11.70;99.90
5697;DHT22;2873;50.966;7.210;2023-11-21T14:50:30;11.70;99.90
5697;DHT22;2873;50.966;7.210;2023-11-21T14:53:01;11.70;99.90
5697;DHT22;2873;50.966;7.210;2023-11-21T14:55:34;11.70;99.90
5697;DHT22;2873;50.966;7.210;2023-11-21T14:58:15;11.70;99.90
5697;DHT22;2873;50.966;7.210;2023-11-21T15:00:45;11.80;99.90
5697;DHT22;2873;50.966;7.210;2023-11-21T15:03:11;11.60;99.90
5697;DHT22;2873;50.966;7.210;2023-11-21T15:05:50;11.70;99.90
5697;DHT22;2873;50.966;7.210;2023-11-21T15:08:15;11.70;99.90
5697;DHT22;2873;50.966;7.210;2023-11-21T15:10:49;11.60;99.90
5697;DHT22;2873;50.966;7.210;2023-11-21T15:13:23;11.80;99.90
5697;DHT22;2873;50.966;7.210;2023-11-21T15:15:51;11.80;99.90
5697;DHT22;2873;50.966;7.210;2023-11-21T15:18:19;11.70;99.90
5697;DHT22;2873;50.966;7.210;2023-11-21T15:20:45;11.70;99.90
5697;DHT22;2873;50.966;7.210;2023-11-21T15:23:10;11.70;99.90
5697;DHT22;2873;50.966;7.210;2023-11-21T15:25:38;11.80;99.90
5697;DHT22;2873;50.966;7.210;2023-11-21T15:28:03;11.80;99.90
5697;DHT22;2873;50.966;7.210;2023-11-21T15:30:30;11.70;99.90
5697;DHT22;2873;50.966;7.210;2023-11-21T15:33:00;11.70;99.90
5697;DHT22;2873;50.966;7.210;2023-11-21T15:35:25;11.80;99.90
5697;DHT22;2873;50.966;7.210;2023-11-21T15:37:53;11.60;99.90
5697;DHT22;2873;50.966;7.210;2023-11-21T15:40:22;11.60;99.90
5697;DHT22;2873;50.966;7.210;2023-11-21T15:42:48;11.60;99.90
5697;DHT22;2873;50.966;7.210;2023-11-21T15:45:15;11.60;99.90
5697;DHT22;2873;50.966;7.210;2023-11-21T15:47:43;11.60;99.90
5697;DHT22;2873;50.966;7.210;2023-11-21T15:50:09;11.50;99.90
5697;DHT22;2873;50.966;7.210;2023-11-21T15:52:36;11.40;99.90
5697;DHT22;2873;50.966;7.210;2023-11-21T15:55:01;11.40;99.90
5697;DHT22;2873;50.966;7.210;2023-11-21T15:57:27;11.50;99.90
5697;DHT22;2873;50.966;7.210;2023-11-21T15:59:52;11.30;99.90
5697;DHT22;2873;50.966;7.210;2023-11-21T16:02:18;11.40;99.90
5697;DHT22;2873;50.966;7.210;2023-11-21T16:04:43;11.40;99.90
5697;DHT22;2873;50.966;7.210;2023-11-21T16:07:09;11.40;99.90
5697;DHT22;2873;50.966;7.210;2023-11-21T16:09:36;11.40;99.90
5697;DHT22;2873;50.966;7.210;2023-11-21T16:12:04;11.40;99.90
5697;DHT22;2873;50.966;7.210;2023-11-21T16:14:33;11.50;99.90